createdAt,value
2022-10-04T00:01:52.966Z,17.90
2022-10-04T00:04:26.866Z,22.77
2022-10-04T00:07:00.497Z,17.20
2022-10-04T00:09:35.267Z,34.37
2022-10-04T00:12:05.836Z,37.13
2022-10-04T00:14:38.537Z,36.50
2022-10-04T00:17:13.155Z,14.80
2022-10-04T00:19:47.084Z,25.43
2022-10-04T00:22:18.329Z,21.37
2022-10-04T00:25:20.103Z,13.90
2022-10-04T00:28:27.814Z,16.53
2022-10-04T00:31:17.576Z,16.30
2022-10-04T00:33:47.492Z,21.33
2022-10-04T00:36:52.174Z,26.73
2022-10-04T00:39:42.049Z,27.20
2022-10-04T00:42:38.672Z,26.30
2022-10-04T00:45:14.879Z,25.90
2022-10-04T00:48:04.621Z,17.13
2022-10-04T00:50:38.371Z,15.90
2022-10-04T00:53:18.627Z,15.03
2022-10-04T00:55:52.027Z,11.10
2022-10-04T00:58:26.184Z,11.03
2022-10-04T01:00:56.339Z,15.63
2022-10-04T01:03:31.396Z,16.80
2022-10-04T01:06:03.175Z,10.27
2022-10-04T01:08:38.351Z,11.53
2022-10-04T01:11:14.414Z,14.80
2022-10-04T01:13:50.105Z,13.90
2022-10-04T01:16:20.673Z,10.73
2022-10-04T01:18:49.091Z,10.20
2022-10-04T01:21:28.408Z,9.20
2022-10-04T01:24:22.300Z,9.03
2022-10-04T01:26:51.406Z,9.83
2022-10-04T01:29:26.100Z,9.70
2022-10-04T01:31:55.985Z,9.57
2022-10-04T01:34:26.946Z,9.10
2022-10-04T01:36:57.643Z,9.80
2022-10-04T01:39:28.884Z,10.30
2022-10-04T01:42:05.091Z,9.60
2022-10-04T01:44:38.585Z,9.03
2022-10-04T01:47:13.467Z,10.77
2022-10-04T01:49:44.800Z,9.93
2022-10-04T01:52:18.994Z,10.30
2022-10-04T01:54:53.501Z,9.43
2022-10-04T01:57:26.828Z,10.10
2022-10-04T02:00:01.415Z,9.33
2022-10-04T02:02:37.810Z,10.90
2022-10-04T02:05:11.269Z,9.30
2022-10-04T02:07:41.936Z,7.90
2022-10-04T02:10:17.450Z,8.60
2022-10-04T02:12:48.939Z,8.37
2022-10-04T02:15:20.061Z,7.73
2022-10-04T02:17:50.276Z,9.80
2022-10-04T02:20:22.383Z,10.00
2022-10-04T02:22:56.282Z,7.40
2022-10-04T02:25:26.778Z,8.30
2022-10-04T02:27:57.232Z,9.57
2022-10-04T02:30:26.017Z,8.67
2022-10-04T02:32:58.322Z,8.30
2022-10-04T02:35:29.685Z,7.77
2022-10-04T02:38:10.840Z,6.67
2022-10-04T02:40:48.405Z,6.63
2022-10-04T02:43:21.186Z,7.50
2022-10-04T02:45:54.309Z,6.07
2022-10-04T02:48:36.766Z,7.33
2022-10-04T02:51:17.255Z,6.80
2022-10-04T02:53:54.685Z,6.27
2022-10-04T02:56:25.555Z,7.97
2022-10-04T02:58:55.047Z,6.07
2022-10-04T03:01:28.813Z,5.87
2022-10-04T03:03:59.181Z,5.53
2022-10-04T03:06:32.928Z,6.70
2022-10-04T03:09:06.058Z,6.40
2022-10-04T03:11:40.527Z,6.10
2022-10-04T03:14:13.913Z,6.53
2022-10-04T03:16:44.353Z,6.03
2022-10-04T03:19:14.770Z,5.67
2022-10-04T03:21:44.820Z,5.90
2022-10-04T03:24:18.711Z,6.93
2022-10-04T03:26:51.457Z,6.23
2022-10-04T03:29:22.879Z,6.00
2022-10-04T03:31:55.144Z,8.30
2022-10-04T03:34:25.809Z,7.70
2022-10-04T03:36:56.203Z,5.83
2022-10-04T03:39:29.579Z,6.70
2022-10-04T03:41:59.522Z,7.63
2022-10-04T03:44:28.178Z,7.40
2022-10-04T03:46:56.657Z,6.03
2022-10-04T03:49:34.566Z,6.07
2022-10-04T03:52:04.269Z,6.63
2022-10-04T03:54:34.062Z,6.50
2022-10-04T03:57:04.109Z,6.50
2022-10-04T03:59:32.312Z,5.20
2022-10-04T04:02:11.190Z,5.77
2022-10-04T04:04:50.438Z,5.97
2022-10-04T04:07:23.619Z,5.30
2022-10-04T04:09:55.625Z,5.50
2022-10-04T04:12:34.079Z,6.10
2022-10-04T04:15:07.168Z,5.60
2022-10-04T04:17:41.992Z,5.90
2022-10-04T04:20:27.359Z,5.20
2022-10-04T04:23:06.888Z,5.20
2022-10-04T04:25:41.137Z,5.30
2022-10-04T04:28:25.331Z,5.20
2022-10-04T04:31:00.292Z,4.43
2022-10-04T04:33:41.985Z,5.53
2022-10-04T04:36:15.508Z,5.43
2022-10-04T04:38:58.195Z,5.80
2022-10-04T04:41:29.003Z,7.23
2022-10-04T04:43:59.092Z,6.60
2022-10-04T04:46:29.043Z,5.47
2022-10-04T04:49:03.130Z,6.60
2022-10-04T04:51:34.094Z,5.53
2022-10-04T04:54:04.872Z,6.80
2022-10-04T04:56:34.166Z,5.80
2022-10-04T04:59:08.190Z,5.20
2022-10-04T05:01:42.890Z,5.43
2022-10-04T05:04:19.015Z,5.93
2022-10-04T05:06:48.986Z,5.13
2022-10-04T05:09:37.311Z,5.00
2022-10-04T05:12:09.523Z,7.23
2022-10-04T05:14:48.061Z,6.50
2022-10-04T05:17:20.910Z,6.53
2022-10-04T05:19:49.981Z,6.73
2022-10-04T05:22:23.648Z,7.50
2022-10-04T05:24:56.322Z,6.10
2022-10-04T05:27:30.096Z,7.10
2022-10-04T05:30:07.256Z,6.80
2022-10-04T05:32:45.469Z,7.47
2022-10-04T05:35:18.529Z,6.83
2022-10-04T05:37:57.114Z,5.60
2022-10-04T05:40:36.488Z,9.07
2022-10-04T05:43:22.726Z,8.93
2022-10-04T05:46:14.456Z,8.97
2022-10-04T05:48:44.223Z,6.60
2022-10-04T05:51:20.677Z,4.40
2022-10-04T05:53:50.918Z,5.40
2022-10-04T05:56:37.609Z,7.60
2022-10-04T05:59:16.164Z,5.50
2022-10-04T06:01:55.931Z,6.43
2022-10-04T06:04:41.003Z,7.50
2022-10-04T06:07:17.129Z,7.20
2022-10-04T06:10:03.172Z,6.33
2022-10-04T06:12:44.913Z,5.83
2022-10-04T06:15:41.955Z,4.77
2022-10-04T06:18:25.783Z,4.10
2022-10-04T06:21:19.719Z,4.73
2022-10-04T06:23:55.805Z,6.90
2022-10-04T06:26:26.607Z,5.77
2022-10-04T06:29:00.151Z,5.17
2022-10-04T06:32:02.784Z,5.30
2022-10-04T06:34:56.309Z,6.00
2022-10-04T06:37:59.832Z,7.73
2022-10-04T06:40:44.211Z,6.40
2022-10-04T06:43:27.118Z,6.80
2022-10-04T06:46:12.798Z,6.53
2022-10-04T06:49:21.167Z,5.87
2022-10-04T06:52:09.517Z,8.13
2022-10-04T06:54:59.651Z,8.70
2022-10-04T06:57:50.706Z,8.23
2022-10-04T07:00:22.671Z,8.27
2022-10-04T07:02:56.938Z,8.00
2022-10-04T07:05:31.407Z,6.93
2022-10-04T07:08:11.956Z,6.73
2022-10-04T07:10:50.662Z,6.40
2022-10-04T07:13:33.233Z,8.43
2022-10-04T07:16:06.932Z,7.20
2022-10-04T07:18:38.821Z,7.13
2022-10-04T07:21:12.410Z,7.93
2022-10-04T07:23:50.316Z,9.93
2022-10-04T07:26:26.584Z,8.47
2022-10-04T07:29:16.308Z,8.00
2022-10-04T07:31:47.251Z,7.27
2022-10-04T07:34:18.790Z,8.90
2022-10-04T07:36:51.797Z,7.60
2022-10-04T07:39:26.040Z,8.93
2022-10-04T07:41:57.384Z,6.60
2022-10-04T07:44:35.276Z,6.67
2022-10-04T07:47:14.606Z,6.67
2022-10-04T07:49:43.039Z,6.03
2022-10-04T07:52:28.314Z,5.87
2022-10-04T07:55:08.168Z,5.50
2022-10-04T07:57:49.002Z,6.10
2022-10-04T08:00:21.957Z,5.50
2022-10-04T08:03:08.415Z,5.10
2022-10-04T08:05:42.159Z,4.60
2022-10-04T08:08:26.315Z,4.70
2022-10-04T08:11:09.481Z,4.83
2022-10-04T08:13:46.080Z,5.17
2022-10-04T08:16:26.278Z,5.67
2022-10-04T08:19:24.225Z,6.60
2022-10-04T08:22:02.144Z,5.80
2022-10-04T08:24:36.832Z,7.67
2022-10-04T08:27:28.173Z,7.40
2022-10-04T08:30:04.594Z,6.97
2022-10-04T08:33:06.415Z,8.00
2022-10-04T08:35:39.903Z,7.10
2022-10-04T08:38:21.213Z,7.37
2022-10-04T08:41:36.568Z,6.93
2022-10-04T08:44:58.466Z,6.80
2022-10-04T08:48:18.216Z,6.93
2022-10-04T08:51:11.599Z,6.40
2022-10-04T08:54:05.013Z,6.43
2022-10-04T08:56:52.324Z,5.60
2022-10-04T08:59:46.610Z,6.53
2022-10-04T09:02:46.369Z,5.83
2022-10-04T09:05:32.248Z,6.10
2022-10-04T09:08:32.869Z,5.50
2022-10-04T09:11:17.737Z,7.30
2022-10-04T09:14:00.469Z,5.60
2022-10-04T09:16:44.742Z,6.40
2022-10-04T09:19:24.317Z,17.83
2022-10-04T09:22:20.103Z,8.17
2022-10-04T09:25:23.197Z,12.53
2022-10-04T09:28:10.487Z,19.53
2022-10-04T09:30:57.734Z,24.03
2022-10-04T09:33:50.160Z,25.80
2022-10-04T09:36:55.725Z,26.30
2022-10-04T09:39:44.027Z,19.33
2022-10-04T09:42:39.580Z,35.30
2022-10-04T09:45:37.987Z,27.50
2022-10-04T09:48:25.037Z,35.00
2022-10-04T09:51:28.980Z,55.23
2022-10-04T09:54:24.016Z,90.03
2022-10-04T09:57:19.434Z,127.80
2022-10-04T10:00:10.858Z,408.00
2022-10-04T10:03:04.276Z,504.90
2022-10-04T10:05:49.709Z,684.50
2022-10-04T10:08:28.405Z,942.07
2022-10-04T10:11:21.110Z,955.13
2022-10-04T10:14:43.060Z,962.27
2022-10-04T10:17:17.722Z,918.07
2022-10-04T10:20:23.292Z,999.90
2022-10-04T10:23:27.475Z,996.93
2022-10-04T10:26:22.913Z,978.00
2022-10-04T10:29:10.731Z,999.90
2022-10-04T10:31:58.989Z,996.77
2022-10-04T10:34:52.242Z,999.90
2022-10-04T10:37:30.984Z,909.47
2022-10-04T10:40:19.329Z,875.77
2022-10-04T10:43:01.091Z,807.10
2022-10-04T10:45:45.747Z,892.13
2022-10-04T10:48:19.272Z,789.67
2022-10-04T10:51:11.172Z,977.53
2022-10-04T10:54:25.133Z,992.63
2022-10-04T10:57:07.856Z,601.50
2022-10-04T11:00:11.900Z,804.93
2022-10-04T11:03:20.516Z,999.90
2022-10-04T11:06:29.443Z,999.90
2022-10-04T11:09:33.112Z,758.07
2022-10-04T11:12:45.867Z,764.23
2022-10-04T11:15:41.038Z,999.90
2022-10-04T11:18:26.861Z,999.90
2022-10-04T11:21:30.432Z,999.90
2022-10-04T11:24:30.459Z,999.90
2022-10-04T11:27:14.778Z,999.90
2022-10-04T11:29:59.065Z,999.90
2022-10-04T11:33:02.202Z,999.90
2022-10-04T11:35:54.672Z,999.90
2022-10-04T11:38:34.071Z,999.90
2022-10-04T11:41:16.646Z,999.90
2022-10-04T11:44:15.824Z,999.90
2022-10-04T11:46:54.901Z,999.90
2022-10-04T11:49:39.031Z,999.90
2022-10-04T11:52:46.317Z,999.90
2022-10-04T11:55:54.337Z,999.90
2022-10-04T11:58:32.805Z,999.90
2022-10-04T12:01:31.990Z,999.90
2022-10-04T12:04:32.063Z,999.90
2022-10-04T12:07:26.557Z,999.90
2022-10-04T12:10:04.668Z,999.90
2022-10-04T12:12:50.571Z,999.90
2022-10-04T12:15:49.700Z,999.90
2022-10-04T12:18:46.843Z,999.90
2022-10-04T12:21:50.431Z,999.90
2022-10-04T12:24:51.772Z,999.90
2022-10-04T12:27:46.383Z,999.90
2022-10-04T12:30:22.300Z,999.90
2022-10-04T12:33:03.368Z,999.90
2022-10-04T12:35:46.011Z,999.90
2022-10-04T12:38:37.366Z,999.90
2022-10-04T12:41:15.550Z,999.90
2022-10-04T12:43:52.612Z,999.90
2022-10-04T12:46:35.128Z,999.90
2022-10-04T12:49:17.079Z,999.90
2022-10-04T12:51:54.132Z,999.90
2022-10-04T12:54:38.001Z,999.90
2022-10-04T12:57:23.028Z,999.90
2022-10-04T13:00:03.584Z,999.90
2022-10-04T13:02:59.053Z,999.90
2022-10-04T13:05:35.676Z,999.90
2022-10-04T13:08:21.208Z,999.90
2022-10-04T13:11:13.470Z,999.90
2022-10-04T13:14:15.369Z,999.90
2022-10-04T13:19:53.487Z,999.90
2022-10-04T13:25:37.320Z,999.90
2022-10-04T13:28:21.425Z,999.90
2022-10-04T13:30:54.998Z,999.90
2022-10-04T13:33:30.967Z,999.90
2022-10-04T13:36:07.504Z,999.90
2022-10-04T13:39:02.120Z,999.90
2022-10-04T13:41:44.788Z,999.90
2022-10-04T13:44:46.164Z,999.90
2022-10-04T13:47:34.762Z,999.90
2022-10-04T13:50:31.437Z,999.90
2022-10-04T13:53:30.542Z,999.90
2022-10-04T13:56:22.020Z,999.90
2022-10-04T13:58:58.705Z,999.90
2022-10-04T14:02:04.612Z,999.90
2022-10-04T14:05:09.634Z,999.90
2022-10-04T14:07:58.570Z,999.90
2022-10-04T14:10:50.697Z,999.90
2022-10-04T14:13:48.813Z,999.90
2022-10-04T14:16:43.666Z,999.90
2022-10-04T14:19:58.263Z,999.90
2022-10-04T14:22:59.093Z,999.90
2022-10-04T14:26:07.396Z,999.90
2022-10-04T14:29:07.875Z,999.90
2022-10-04T14:31:59.541Z,999.90
2022-10-04T14:34:58.251Z,999.90
2022-10-04T14:38:02.936Z,999.90
2022-10-04T14:40:54.256Z,999.90
2022-10-04T14:43:50.345Z,999.90
2022-10-04T14:46:24.624Z,999.90
2022-10-04T14:49:05.390Z,999.90
2022-10-04T14:51:57.368Z,999.90
2022-10-04T14:55:12.053Z,999.90
2022-10-04T14:57:56.354Z,999.90
2022-10-04T15:00:31.237Z,999.90
2022-10-04T15:03:34.767Z,999.90
2022-10-04T15:06:19.649Z,999.90
2022-10-04T15:09:08.841Z,999.90
2022-10-04T15:12:21.525Z,999.90
2022-10-04T15:18:52.018Z,999.90
2022-10-04T15:21:53.367Z,999.90
2022-10-04T15:24:28.896Z,999.90
2022-10-04T15:27:39.346Z,999.90
2022-10-04T15:30:18.912Z,999.90
2022-10-04T15:32:55.093Z,999.90
2022-10-04T15:35:34.417Z,999.90
2022-10-04T15:38:15.823Z,999.90
2022-10-04T15:41:01.942Z,999.90
2022-10-04T15:43:38.940Z,999.90
2022-10-04T15:46:45.549Z,999.90
2022-10-04T15:49:33.152Z,999.90
2022-10-04T15:52:19.364Z,999.90
2022-10-04T15:55:18.084Z,999.90
2022-10-04T15:58:11.388Z,999.90
2022-10-04T16:00:53.931Z,999.90
2022-10-04T16:03:40.527Z,999.90
2022-10-04T16:06:13.455Z,999.90
2022-10-04T16:09:04.587Z,999.90
2022-10-04T16:11:46.042Z,999.90
2022-10-04T16:14:38.996Z,999.90
2022-10-04T16:17:25.706Z,999.90
2022-10-04T16:20:13.643Z,999.90
2022-10-04T16:22:42.234Z,999.90
2022-10-04T16:25:36.898Z,999.90
2022-10-04T16:28:12.873Z,999.90
2022-10-04T16:30:46.209Z,999.90
2022-10-04T16:33:31.329Z,999.90
2022-10-04T16:36:10.088Z,999.90
2022-10-04T16:39:07.543Z,999.90
2022-10-04T16:41:44.308Z,999.90
2022-10-04T16:44:33.929Z,999.90
2022-10-04T16:47:14.791Z,999.90
2022-10-04T16:49:54.840Z,999.90
2022-10-04T16:52:48.045Z,815.10
2022-10-04T16:55:50.868Z,779.27
2022-10-04T16:58:44.270Z,365.67
2022-10-04T17:01:56.758Z,621.30
2022-10-04T17:04:45.973Z,703.07
2022-10-04T17:07:28.093Z,982.47
2022-10-04T17:10:04.348Z,999.90
2022-10-04T17:12:45.550Z,958.70
2022-10-04T17:15:37.314Z,909.30
2022-10-04T17:18:19.272Z,871.17
2022-10-04T17:20:57.450Z,903.63
2022-10-04T17:23:56.849Z,790.30
2022-10-04T17:26:39.402Z,933.03
2022-10-04T17:29:26.867Z,857.60
2022-10-04T17:32:00.201Z,814.10
2022-10-04T17:34:42.925Z,817.50
2022-10-04T17:37:20.375Z,761.10
2022-10-04T17:39:58.567Z,698.93
2022-10-04T17:42:41.152Z,737.87
2022-10-04T17:45:35.735Z,770.97
2022-10-04T17:48:26.883Z,700.00
2022-10-04T17:51:19.121Z,498.17
2022-10-04T17:54:09.576Z,351.17
2022-10-04T17:56:45.718Z,208.87
2022-10-04T17:59:19.172Z,69.07
2022-10-04T18:01:52.916Z,36.40
2022-10-04T18:04:26.256Z,66.07
2022-10-04T18:07:02.574Z,64.30
2022-10-04T18:09:36.313Z,81.40
2022-10-04T18:12:12.541Z,86.63
2022-10-04T18:14:58.459Z,194.10
2022-10-04T18:17:34.548Z,158.93
2022-10-04T18:20:24.846Z,119.47
2022-10-04T18:23:01.293Z,102.27
2022-10-04T18:25:31.082Z,61.23
2022-10-04T18:28:14.688Z,75.43
2022-10-04T18:30:59.025Z,84.40
2022-10-04T18:33:45.928Z,70.50
2022-10-04T18:36:18.123Z,124.40
2022-10-04T18:38:48.372Z,141.50
2022-10-04T18:41:21.194Z,122.30
2022-10-04T18:44:06.137Z,92.23
2022-10-04T18:46:40.839Z,107.40
2022-10-04T18:49:17.312Z,77.63
2022-10-04T18:51:55.854Z,94.17
2022-10-04T18:54:32.188Z,95.70
2022-10-04T18:57:18.896Z,74.37
2022-10-04T19:00:17.597Z,84.67
2022-10-04T19:02:54.482Z,78.63
2022-10-04T19:05:32.565Z,65.70
2022-10-04T19:08:15.621Z,51.23
2022-10-04T19:10:52.094Z,71.63
2022-10-04T19:13:34.794Z,43.10
2022-10-04T19:16:30.220Z,34.20
2022-10-04T19:19:07.896Z,53.83
2022-10-04T19:21:46.416Z,49.07
2022-10-04T19:24:42.046Z,47.73
2022-10-04T19:27:21.547Z,94.53
2022-10-04T19:30:03.860Z,87.43
2022-10-04T19:32:43.712Z,117.13
2022-10-04T19:35:24.492Z,88.70
2022-10-04T19:38:03.661Z,72.83
2022-10-04T19:40:44.988Z,45.80
2022-10-04T19:43:18.071Z,46.03
2022-10-04T19:46:03.006Z,21.57
2022-10-04T19:48:39.104Z,29.07
2022-10-04T19:51:13.485Z,24.63
2022-10-04T19:53:43.467Z,28.10
2022-10-04T19:56:19.123Z,28.33
2022-10-04T19:58:56.016Z,25.80
2022-10-04T20:01:26.077Z,33.53
2022-10-04T20:04:09.757Z,56.07
2022-10-04T20:06:40.093Z,43.63
2022-10-04T20:09:26.340Z,33.97
2022-10-04T20:11:54.926Z,34.70
2022-10-04T20:14:44.950Z,27.43
2022-10-04T20:17:31.460Z,30.07
2022-10-04T20:20:01.467Z,22.83
2022-10-04T20:23:00.507Z,22.50
2022-10-04T20:26:03.837Z,25.50
2022-10-04T20:28:46.150Z,24.17
2022-10-04T20:31:53.896Z,47.93
2022-10-04T20:34:33.097Z,21.40
2022-10-04T20:37:03.627Z,22.63
2022-10-04T20:40:01.953Z,21.67
2022-10-04T20:42:39.597Z,21.20
2022-10-04T20:45:23.298Z,25.90
2022-10-04T20:47:54.208Z,38.00
2022-10-04T20:50:49.438Z,22.40
2022-10-04T20:53:21.964Z,42.57
2022-10-04T20:55:52.495Z,36.43
2022-10-04T20:58:36.533Z,35.60
2022-10-04T21:01:16.848Z,35.37
2022-10-04T21:03:45.070Z,23.07
2022-10-04T21:06:13.220Z,21.83
2022-10-04T21:08:42.789Z,22.33
2022-10-04T21:11:21.924Z,27.07
2022-10-04T21:13:58.578Z,21.73
2022-10-04T21:16:45.118Z,31.23
2022-10-04T21:19:44.738Z,42.13
2022-10-04T21:22:39.816Z,39.37
2022-10-04T21:25:42.572Z,55.40
2022-10-04T21:28:40.748Z,39.23
2022-10-04T21:31:08.871Z,63.90
2022-10-04T21:33:37.627Z,35.77
2022-10-04T21:36:07.200Z,46.40
2022-10-04T21:38:35.369Z,44.43
2022-10-04T21:41:05.067Z,28.93
2022-10-04T21:43:33.534Z,31.90
2022-10-04T21:46:01.668Z,17.43
2022-10-04T21:48:29.929Z,24.73
2022-10-04T21:50:58.068Z,17.47
2022-10-04T21:53:26.670Z,27.30
2022-10-04T21:55:54.929Z,18.53
2022-10-04T21:58:24.370Z,24.77
2022-10-04T22:00:52.511Z,14.83
2022-10-04T22:03:20.748Z,22.13
2022-10-04T22:05:48.969Z,19.60
2022-10-04T22:08:17.259Z,15.90
2022-10-04T22:10:46.434Z,23.67
2022-10-04T22:13:14.881Z,18.27
2022-10-04T22:15:44.320Z,18.80
2022-10-04T22:18:12.428Z,28.50
2022-10-04T22:20:40.505Z,39.40
2022-10-04T22:23:17.331Z,43.73
2022-10-04T22:25:45.443Z,52.83
2022-10-04T22:28:18.709Z,43.07
2022-10-04T22:30:49.535Z,55.40
2022-10-04T22:33:28.430Z,49.07
2022-10-04T22:35:57.669Z,49.87
2022-10-04T22:38:25.823Z,47.20
2022-10-04T22:40:54.693Z,43.07
2022-10-04T22:43:22.861Z,36.83
2022-10-04T22:45:53.497Z,32.83
2022-10-04T22:48:21.601Z,53.30
2022-10-04T22:50:50.939Z,37.57
2022-10-04T22:53:21.932Z,34.77
2022-10-04T22:55:51.392Z,42.53
2022-10-04T22:58:20.946Z,23.53
2022-10-04T23:00:50.271Z,47.30
2022-10-04T23:03:28.842Z,43.37
2022-10-04T23:05:56.989Z,41.63
2022-10-04T23:08:25.179Z,40.23
2022-10-04T23:10:55.476Z,35.00
2022-10-04T23:13:25.077Z,25.07
2022-10-04T23:15:54.084Z,43.57
2022-10-04T23:18:23.708Z,26.57
2022-10-04T23:20:57.860Z,25.23
2022-10-04T23:23:28.558Z,28.80
2022-10-04T23:25:56.813Z,24.73
2022-10-04T23:28:25.729Z,22.20
2022-10-04T23:31:01.817Z,46.30
2022-10-04T23:33:31.538Z,24.97
2022-10-04T23:35:59.814Z,31.07
2022-10-04T23:38:29.283Z,38.73
2022-10-04T23:40:57.806Z,45.43
2022-10-04T23:43:26.847Z,43.33
2022-10-04T23:45:56.871Z,52.20
2022-10-04T23:48:27.845Z,43.57
2022-10-04T23:50:59.919Z,44.53
2022-10-04T23:53:29.505Z,33.97
2022-10-04T23:56:03.494Z,25.17
2022-10-04T23:58:37.388Z,27.33
